createdAt,value
2023-01-30T00:01:10.242Z,69.13
2023-01-30T00:03:42.196Z,69.16
2023-01-30T00:06:14.701Z,69.42
2023-01-30T00:08:46.840Z,69.76
2023-01-30T00:11:21.032Z,69.59
2023-01-30T00:13:53.530Z,69.54
2023-01-30T00:16:25.580Z,69.52
2023-01-30T00:18:57.581Z,69.60
2023-01-30T00:21:29.865Z,69.87
2023-01-30T00:24:02.059Z,70.31
2023-01-30T00:26:34.241Z,70.23
2023-01-30T00:29:06.318Z,70.39
2023-01-30T00:31:38.265Z,70.41
2023-01-30T00:34:10.374Z,70.31
2023-01-30T00:36:43.060Z,70.34
2023-01-30T00:39:15.081Z,70.03
2023-01-30T00:42:06.849Z,70.26
2023-01-30T00:44:56.549Z,70.32
2023-01-30T00:47:28.481Z,70.34
2023-01-30T00:50:00.467Z,70.40
2023-01-30T00:52:33.069Z,70.55
2023-01-30T00:55:05.970Z,70.60
2023-01-30T00:57:38.094Z,70.48
2023-01-30T01:00:11.173Z,70.57
2023-01-30T01:02:44.935Z,70.31
2023-01-30T01:05:17.604Z,70.21
2023-01-30T01:07:50.228Z,70.41
2023-01-30T01:10:22.725Z,70.47
2023-01-30T01:12:55.178Z,70.45
2023-01-30T01:15:28.009Z,70.33
2023-01-30T01:18:00.092Z,70.16
2023-01-30T01:20:32.435Z,70.10
2023-01-30T01:23:04.478Z,70.24
2023-01-30T01:25:36.543Z,70.13
2023-01-30T01:28:10.118Z,69.87
2023-01-30T01:30:42.046Z,69.82
2023-01-30T01:33:15.054Z,69.17
2023-01-30T01:35:47.987Z,69.88
2023-01-30T01:38:20.481Z,70.10
2023-01-30T01:41:05.944Z,70.17
2023-01-30T01:43:41.893Z,70.24
2023-01-30T01:46:19.851Z,70.61
2023-01-30T01:48:54.617Z,70.65
2023-01-30T01:51:35.364Z,70.74
2023-01-30T01:54:19.526Z,70.80
2023-01-30T01:56:51.631Z,70.67
2023-01-30T01:59:28.905Z,70.14
2023-01-30T02:02:04.454Z,70.65
2023-01-30T02:04:55.830Z,70.64
2023-01-30T02:07:29.582Z,71.00
2023-01-30T02:10:02.457Z,71.08
2023-01-30T02:12:34.692Z,71.36
2023-01-30T02:15:07.429Z,71.44
2023-01-30T02:17:42.096Z,71.60
2023-01-30T02:20:26.050Z,71.62
2023-01-30T02:23:12.830Z,71.77
2023-01-30T02:26:08.289Z,71.44
2023-01-30T02:28:51.914Z,71.27
2023-01-30T02:31:49.037Z,71.43
2023-01-30T02:34:28.392Z,71.51
2023-01-30T02:37:15.132Z,71.46
2023-01-30T02:39:50.614Z,71.67
2023-01-30T02:42:28.301Z,71.26
2023-01-30T02:45:21.330Z,71.51
2023-01-30T02:48:08.052Z,71.38
2023-01-30T02:50:48.316Z,71.45
2023-01-30T02:53:20.510Z,71.33
2023-01-30T02:55:52.757Z,71.57
2023-01-30T02:58:27.928Z,71.40
2023-01-30T03:01:23.892Z,71.43
2023-01-30T03:04:19.820Z,71.61
2023-01-30T03:07:11.470Z,71.49
2023-01-30T03:09:46.481Z,71.20
2023-01-30T03:12:32.127Z,71.21
2023-01-30T03:15:12.835Z,71.12
2023-01-30T03:17:48.418Z,71.21
2023-01-30T03:20:22.387Z,71.36
2023-01-30T03:22:55.702Z,71.30
2023-01-30T03:25:29.177Z,71.12
2023-01-30T03:28:03.664Z,70.99
2023-01-30T03:30:36.478Z,71.12
2023-01-30T03:33:10.541Z,71.16
2023-01-30T03:35:43.787Z,71.02
2023-01-30T03:38:18.386Z,70.83
2023-01-30T03:40:51.010Z,70.98
2023-01-30T03:43:23.135Z,70.75
2023-01-30T03:45:56.464Z,70.92
2023-01-30T03:48:28.927Z,70.77
2023-01-30T03:51:01.132Z,70.70
2023-01-30T03:53:33.577Z,70.83
2023-01-30T03:56:06.212Z,70.57
2023-01-30T03:58:39.413Z,70.55
2023-01-30T04:01:16.054Z,70.46
2023-01-30T04:03:48.746Z,70.49
2023-01-30T04:06:21.208Z,70.52
2023-01-30T04:08:56.777Z,70.58
2023-01-30T04:11:33.488Z,70.77
2023-01-30T04:14:05.850Z,70.54
2023-01-30T04:16:40.082Z,70.48
2023-01-30T04:19:17.307Z,70.31
2023-01-30T04:21:50.212Z,69.80
2023-01-30T04:24:23.228Z,69.91
2023-01-30T04:26:55.697Z,69.91
2023-01-30T04:29:29.798Z,70.04
2023-01-30T04:32:03.514Z,70.03
2023-01-30T04:34:37.752Z,69.94
2023-01-30T04:37:11.698Z,69.80
2023-01-30T04:39:44.577Z,69.62
2023-01-30T04:42:17.173Z,69.81
2023-01-30T04:44:51.295Z,70.09
2023-01-30T04:47:24.942Z,69.97
2023-01-30T04:49:57.008Z,69.65
2023-01-30T04:52:29.827Z,69.56
2023-01-30T04:55:03.150Z,69.78
2023-01-30T04:57:36.815Z,69.91
2023-01-30T05:00:10.207Z,69.81
2023-01-30T05:02:44.284Z,69.61
2023-01-30T05:05:17.425Z,69.46
2023-01-30T05:07:50.763Z,69.50
2023-01-30T05:10:23.764Z,69.65
2023-01-30T05:12:56.830Z,69.90
2023-01-30T05:15:29.034Z,70.01
2023-01-30T05:18:02.275Z,70.16
2023-01-30T05:20:34.806Z,70.06
2023-01-30T05:23:06.974Z,70.14
2023-01-30T05:25:39.349Z,70.03
2023-01-30T05:28:12.035Z,70.39
2023-01-30T05:30:46.326Z,70.16
2023-01-30T05:33:19.583Z,70.10
2023-01-30T05:35:53.282Z,70.03
2023-01-30T05:38:27.028Z,69.89
2023-01-30T05:41:09.633Z,69.53
2023-01-30T05:43:42.171Z,69.61
2023-01-30T05:46:14.937Z,69.38
2023-01-30T05:48:47.637Z,69.15
2023-01-30T05:51:23.441Z,69.44
2023-01-30T05:53:55.802Z,69.70
2023-01-30T05:56:30.882Z,69.81
2023-01-30T05:59:03.943Z,69.81
2023-01-30T06:01:36.353Z,69.67
2023-01-30T06:04:09.452Z,69.60
2023-01-30T06:06:41.928Z,69.58
2023-01-30T06:09:14.297Z,69.50
2023-01-30T06:11:46.505Z,69.58
2023-01-30T06:14:19.077Z,69.64
2023-01-30T06:16:51.995Z,69.41
2023-01-30T06:19:25.312Z,69.14
2023-01-30T06:21:57.853Z,69.04
2023-01-30T06:24:32.956Z,68.87
2023-01-30T06:27:06.836Z,69.10
2023-01-30T06:29:44.267Z,68.93
2023-01-30T06:32:16.079Z,68.74
2023-01-30T06:34:48.191Z,68.63
2023-01-30T06:37:20.564Z,68.92
2023-01-30T06:39:53.274Z,68.93
2023-01-30T06:42:25.731Z,68.71
2023-01-30T06:44:57.943Z,68.57
2023-01-30T06:47:30.600Z,68.45
2023-01-30T06:50:03.126Z,68.52
2023-01-30T06:52:35.315Z,68.71
2023-01-30T06:55:08.468Z,68.58
2023-01-30T06:57:41.189Z,68.46
2023-01-30T07:00:19.772Z,68.62
2023-01-30T07:02:52.313Z,68.32
2023-01-30T07:05:24.525Z,68.43
2023-01-30T07:07:57.220Z,68.98
2023-01-30T07:10:31.651Z,68.71
2023-01-30T07:13:05.132Z,69.25
2023-01-30T07:15:38.196Z,69.39
2023-01-30T07:18:10.797Z,69.62
2023-01-30T07:20:43.617Z,69.89
2023-01-30T07:23:15.922Z,69.64
2023-01-30T07:25:48.198Z,69.64
2023-01-30T07:28:21.053Z,69.67
2023-01-30T07:30:53.713Z,69.65
2023-01-30T07:33:26.040Z,69.31
2023-01-30T07:36:00.208Z,69.45
2023-01-30T07:38:32.669Z,69.39
2023-01-30T07:41:04.944Z,69.33
2023-01-30T07:43:36.947Z,69.77
2023-01-30T07:46:09.157Z,69.49
2023-01-30T07:48:41.717Z,69.38
2023-01-30T07:51:14.180Z,69.30
2023-01-30T07:53:48.386Z,69.41
2023-01-30T07:56:23.202Z,69.52
2023-01-30T07:58:56.959Z,69.56
2023-01-30T08:01:29.629Z,69.55
2023-01-30T08:04:02.120Z,69.16
2023-01-30T08:06:36.224Z,69.05
2023-01-30T08:09:08.992Z,69.08
2023-01-30T08:11:40.992Z,69.17
2023-01-30T08:14:13.181Z,69.03
2023-01-30T08:16:45.736Z,69.21
2023-01-30T08:19:18.343Z,69.17
2023-01-30T08:21:50.619Z,69.22
2023-01-30T08:24:23.162Z,69.22
2023-01-30T08:26:55.240Z,69.10
2023-01-30T08:29:27.586Z,69.01
2023-01-30T08:32:03.429Z,69.08
2023-01-30T08:34:36.658Z,69.20
2023-01-30T08:37:09.308Z,69.08
2023-01-30T08:39:42.157Z,69.52
2023-01-30T08:42:16.857Z,69.99
2023-01-30T08:44:50.580Z,70.08
2023-01-30T08:47:22.609Z,70.15
2023-01-30T08:49:54.851Z,70.16
2023-01-30T08:52:27.245Z,70.63
2023-01-30T08:54:59.555Z,70.43
2023-01-30T08:57:33.681Z,70.30
2023-01-30T09:00:07.050Z,70.48
2023-01-30T09:02:39.543Z,70.58
2023-01-30T09:05:12.073Z,70.53
2023-01-30T09:07:44.398Z,70.82
2023-01-30T09:10:17.505Z,70.51
2023-01-30T09:12:50.464Z,70.57
2023-01-30T09:15:22.613Z,70.62
2023-01-30T09:17:55.173Z,70.53
2023-01-30T09:20:27.917Z,70.22
2023-01-30T09:23:00.665Z,70.16
2023-01-30T09:25:33.204Z,70.03
2023-01-30T09:28:05.552Z,70.30
2023-01-30T09:30:37.872Z,70.10
2023-01-30T09:33:10.778Z,70.25
2023-01-30T09:35:43.966Z,69.93
2023-01-30T09:38:17.444Z,70.12
2023-01-30T09:40:55.631Z,69.83
2023-01-30T09:43:42.188Z,69.97
2023-01-30T09:46:34.732Z,69.90
2023-01-30T09:49:26.504Z,69.63
2023-01-30T09:52:16.856Z,69.98
2023-01-30T09:54:49.847Z,69.74
2023-01-30T09:57:27.373Z,69.62
2023-01-30T10:00:29.636Z,69.56
2023-01-30T10:03:13.725Z,69.76
2023-01-30T10:06:03.950Z,69.80
2023-01-30T10:08:42.670Z,69.61
2023-01-30T10:11:50.853Z,69.52
2023-01-30T10:14:41.073Z,69.90
2023-01-30T10:17:25.026Z,69.56
2023-01-30T10:20:02.492Z,69.31
2023-01-30T10:22:46.814Z,69.38
2023-01-30T10:25:43.645Z,69.79
2023-01-30T10:28:27.458Z,69.47
2023-01-30T10:31:08.632Z,69.65
2023-01-30T10:34:01.665Z,69.45
2023-01-30T10:36:45.589Z,69.03
2023-01-30T10:39:31.229Z,68.80
2023-01-30T10:42:15.187Z,68.19
2023-01-30T10:44:49.007Z,68.00
2023-01-30T10:47:29.776Z,68.43
2023-01-30T10:50:20.108Z,68.51
2023-01-30T10:53:02.153Z,68.52
2023-01-30T10:55:40.126Z,68.84
2023-01-30T10:58:15.215Z,68.52
2023-01-30T11:01:02.182Z,68.11
2023-01-30T11:03:59.511Z,67.94
2023-01-30T11:06:33.889Z,68.17
2023-01-30T11:09:06.143Z,67.99
2023-01-30T11:11:55.406Z,68.12
2023-01-30T11:14:27.990Z,68.31
2023-01-30T11:17:02.682Z,68.36
2023-01-30T11:19:37.691Z,68.56
2023-01-30T11:22:13.067Z,68.77
2023-01-30T11:24:47.217Z,68.74
2023-01-30T11:27:22.634Z,68.71
2023-01-30T11:30:06.775Z,68.80
2023-01-30T11:32:39.134Z,68.86
2023-01-30T11:35:17.423Z,69.09
2023-01-30T11:37:51.665Z,69.38
2023-01-30T11:40:30.983Z,69.50
2023-01-30T11:43:08.925Z,69.84
2023-01-30T11:45:46.875Z,70.03
2023-01-30T11:48:32.955Z,70.64
2023-01-30T11:51:04.711Z,70.61
2023-01-30T11:53:40.143Z,70.82
2023-01-30T11:56:21.745Z,70.68
2023-01-30T11:59:00.464Z,70.73
2023-01-30T12:01:35.812Z,71.07
2023-01-30T12:04:10.972Z,71.42
2023-01-30T12:06:45.276Z,71.20
2023-01-30T12:09:39.956Z,70.99
2023-01-30T12:12:34.220Z,71.04
2023-01-30T12:15:18.760Z,71.04
2023-01-30T12:18:17.047Z,71.11
2023-01-30T12:21:06.951Z,71.06
2023-01-30T12:24:10.387Z,71.25
2023-01-30T12:26:51.039Z,71.36
2023-01-30T12:29:34.678Z,70.97
2023-01-30T12:32:19.041Z,70.66
2023-01-30T12:34:52.807Z,70.94
2023-01-30T12:37:46.994Z,71.45
2023-01-30T12:40:54.423Z,71.25
2023-01-30T12:43:47.524Z,71.65
2023-01-30T12:46:37.287Z,72.02
2023-01-30T12:49:24.297Z,72.07
2023-01-30T12:52:08.416Z,72.07
2023-01-30T12:54:47.647Z,72.12
2023-01-30T12:57:25.543Z,71.94
2023-01-30T13:00:09.774Z,71.74
2023-01-30T13:02:48.043Z,71.97
2023-01-30T13:05:38.341Z,72.16
2023-01-30T13:08:31.726Z,72.51
2023-01-30T13:11:24.746Z,72.52
2023-01-30T13:13:59.907Z,72.76
2023-01-30T13:16:36.758Z,73.00
2023-01-30T13:19:40.410Z,72.97
2023-01-30T13:22:23.117Z,73.23
2023-01-30T13:25:23.632Z,73.23
2023-01-30T13:27:59.201Z,72.94
2023-01-30T13:30:34.118Z,73.22
2023-01-30T13:33:12.562Z,73.31
2023-01-30T13:35:48.002Z,73.54
2023-01-30T13:38:23.958Z,73.72
2023-01-30T13:40:59.999Z,74.04
2023-01-30T13:43:35.655Z,74.06
2023-01-30T13:46:13.828Z,74.11
2023-01-30T13:48:54.804Z,74.28
2023-01-30T13:51:55.414Z,74.37
2023-01-30T13:54:33.358Z,74.41
2023-01-30T13:57:34.236Z,74.55
2023-01-30T14:00:25.445Z,74.64
2023-01-30T14:03:09.320Z,74.59
2023-01-30T14:06:00.974Z,74.85
2023-01-30T14:08:35.888Z,74.85
2023-01-30T14:11:25.704Z,75.34
2023-01-30T14:14:00.765Z,75.33
2023-01-30T14:16:44.438Z,75.57
2023-01-30T14:19:41.715Z,75.55
2023-01-30T14:22:36.000Z,75.74
2023-01-30T14:25:28.053Z,75.64
2023-01-30T14:28:08.664Z,75.68
2023-01-30T14:30:52.935Z,75.22
2023-01-30T14:33:29.889Z,75.38
2023-01-30T14:36:10.850Z,75.83
2023-01-30T14:38:44.970Z,75.43
2023-01-30T14:41:28.782Z,75.55
2023-01-30T14:44:01.465Z,75.53
2023-01-30T14:46:54.221Z,75.34
2023-01-30T14:49:22.917Z,75.28
2023-01-30T14:51:56.403Z,75.07
2023-01-30T14:54:41.185Z,75.01
2023-01-30T14:57:21.085Z,74.78
2023-01-30T15:00:14.986Z,74.60
2023-01-30T15:02:36.659Z,74.45
2023-01-30T15:05:18.075Z,74.42
2023-01-30T15:08:08.079Z,74.43
2023-01-30T15:11:05.794Z,74.24
2023-01-30T15:13:57.334Z,74.19
2023-01-30T15:16:35.516Z,73.81
2023-01-30T15:19:20.226Z,73.95
2023-01-30T15:21:59.090Z,73.93
2023-01-30T15:24:52.903Z,73.96
2023-01-30T15:27:29.183Z,73.14
2023-01-30T15:30:22.903Z,73.29
2023-01-30T15:33:17.695Z,73.22
2023-01-30T15:35:48.337Z,73.12
2023-01-30T15:38:32.901Z,73.17
2023-01-30T15:41:05.640Z,72.94
2023-01-30T15:43:49.604Z,72.52
2023-01-30T15:46:36.484Z,72.04
2023-01-30T15:49:26.359Z,71.86
2023-01-30T15:52:04.992Z,71.58
2023-01-30T15:54:38.225Z,71.54
2023-01-30T15:57:13.450Z,71.81
2023-01-30T15:59:45.917Z,71.68
2023-01-30T16:02:30.034Z,71.40
2023-01-30T16:05:25.065Z,70.94
2023-01-30T16:07:59.266Z,70.78
2023-01-30T16:10:32.487Z,70.35
2023-01-30T16:13:06.424Z,70.03
2023-01-30T16:16:00.448Z,70.10
2023-01-30T16:18:41.331Z,69.96
2023-01-30T16:21:22.710Z,69.62
2023-01-30T16:24:03.674Z,69.57
2023-01-30T16:26:37.912Z,69.62
2023-01-30T16:29:15.887Z,69.62
2023-01-30T16:31:50.320Z,69.28
2023-01-30T16:34:32.037Z,69.46
2023-01-30T16:37:21.731Z,68.75
2023-01-30T16:40:03.074Z,68.57
2023-01-30T16:42:35.338Z,68.66
2023-01-30T16:45:18.388Z,68.53
2023-01-30T16:47:50.780Z,68.29
2023-01-30T16:50:24.628Z,68.19
2023-01-30T16:52:57.793Z,68.09
2023-01-30T16:55:29.995Z,67.92
2023-01-30T16:58:04.859Z,67.83
2023-01-30T17:00:39.680Z,67.98
2023-01-30T17:03:30.770Z,67.88
2023-01-30T17:06:13.089Z,67.93
2023-01-30T17:08:52.403Z,67.74
2023-01-30T17:11:42.591Z,67.54
2023-01-30T17:14:27.359Z,67.84
2023-01-30T17:17:10.061Z,68.00
2023-01-30T17:19:42.399Z,67.89
2023-01-30T17:22:19.784Z,67.76
2023-01-30T17:24:51.906Z,67.19
2023-01-30T17:27:24.828Z,67.31
2023-01-30T17:29:56.970Z,67.34
2023-01-30T17:32:29.223Z,67.17
2023-01-30T17:35:01.502Z,66.90
2023-01-30T17:37:33.598Z,66.71
2023-01-30T17:40:14.708Z,66.84
2023-01-30T17:42:50.235Z,66.90
2023-01-30T17:45:22.174Z,67.08
2023-01-30T17:47:54.127Z,67.16
2023-01-30T17:50:28.073Z,67.21
2023-01-30T17:53:00.046Z,67.45
2023-01-30T17:55:33.952Z,67.24
2023-01-30T17:58:06.967Z,67.50
2023-01-30T18:00:39.329Z,67.67
2023-01-30T18:03:11.617Z,67.96
2023-01-30T18:05:44.029Z,67.93
2023-01-30T18:08:16.761Z,67.97
2023-01-30T18:10:48.652Z,67.88
2023-01-30T18:13:21.379Z,67.97
2023-01-30T18:15:56.353Z,68.00
2023-01-30T18:18:28.634Z,68.00
2023-01-30T18:21:00.543Z,68.36
2023-01-30T18:23:32.691Z,68.47
2023-01-30T18:26:05.560Z,68.70
2023-01-30T18:28:37.773Z,68.28
2023-01-30T18:31:09.806Z,68.23
2023-01-30T18:33:43.637Z,68.25
2023-01-30T18:36:17.687Z,68.04
2023-01-30T18:38:50.475Z,67.88
2023-01-30T18:41:25.503Z,67.87
2023-01-30T18:43:59.672Z,67.74
2023-01-30T18:46:32.319Z,67.71
2023-01-30T18:49:04.504Z,67.82
2023-01-30T18:51:36.720Z,67.89
2023-01-30T18:54:09.000Z,68.30
2023-01-30T18:56:41.104Z,68.11
2023-01-30T18:59:13.272Z,67.77
2023-01-30T19:01:46.818Z,68.13
2023-01-30T19:04:19.155Z,68.36
2023-01-30T19:06:51.391Z,68.31
2023-01-30T19:09:23.819Z,68.39
2023-01-30T19:12:13.671Z,68.63
2023-01-30T19:14:45.780Z,68.72
2023-01-30T19:17:18.205Z,68.95
2023-01-30T19:19:50.181Z,69.04
2023-01-30T19:22:22.499Z,68.99
2023-01-30T19:24:54.863Z,69.06
2023-01-30T19:27:26.990Z,69.36
2023-01-30T19:29:59.469Z,69.48
2023-01-30T19:32:33.082Z,69.53
2023-01-30T19:35:05.762Z,69.58
2023-01-30T19:37:39.256Z,69.52
2023-01-30T19:40:12.415Z,69.97
2023-01-30T19:42:44.818Z,69.99
2023-01-30T19:45:17.185Z,70.23
2023-01-30T19:47:49.624Z,70.25
2023-01-30T19:50:21.833Z,70.40
2023-01-30T19:52:56.871Z,70.59
2023-01-30T19:55:29.299Z,70.58
2023-01-30T19:58:01.344Z,70.89
2023-01-30T20:00:35.701Z,71.09
2023-01-30T20:03:08.255Z,71.36
2023-01-30T20:05:44.004Z,71.51
2023-01-30T20:08:31.415Z,71.80
2023-01-30T20:10:49.920Z,72.12
2023-01-30T20:13:22.210Z,72.31
2023-01-30T20:15:55.218Z,72.59
2023-01-30T20:18:27.439Z,72.76
2023-01-30T20:21:00.980Z,73.02
2023-01-30T20:23:33.157Z,73.31
2023-01-30T20:26:09.835Z,73.26
2023-01-30T20:28:42.119Z,73.44
2023-01-30T20:31:16.249Z,73.68
2023-01-30T20:33:48.788Z,73.76
2023-01-30T20:36:22.294Z,73.80
2023-01-30T20:38:55.816Z,74.04
2023-01-30T20:41:28.801Z,74.04
2023-01-30T20:44:01.513Z,74.07
2023-01-30T20:46:42.722Z,74.09
2023-01-30T20:49:17.627Z,74.27
2023-01-30T20:51:51.742Z,74.22
2023-01-30T20:54:24.137Z,74.25
2023-01-30T20:56:57.193Z,74.47
2023-01-30T20:59:29.377Z,74.34
2023-01-30T21:02:02.004Z,74.50
2023-01-30T21:04:34.502Z,74.71
2023-01-30T21:07:06.481Z,75.00
2023-01-30T21:09:38.473Z,74.95
2023-01-30T21:12:11.772Z,75.02
2023-01-30T21:14:43.802Z,75.07
2023-01-30T21:17:16.771Z,75.12
2023-01-30T21:19:48.752Z,75.13
2023-01-30T21:22:20.870Z,75.24
2023-01-30T21:24:52.968Z,75.26
2023-01-30T21:27:25.057Z,75.27
2023-01-30T21:29:56.953Z,75.45
2023-01-30T21:32:28.960Z,75.45
2023-01-30T21:35:01.101Z,75.68
2023-01-30T21:37:51.093Z,75.65
2023-01-30T21:40:41.156Z,75.85
2023-01-30T21:43:16.166Z,75.83
2023-01-30T21:45:48.067Z,75.88
2023-01-30T21:48:20.259Z,75.93
2023-01-30T21:50:52.210Z,76.00
2023-01-30T21:53:24.188Z,75.95
2023-01-30T21:55:56.870Z,76.02
2023-01-30T21:58:34.432Z,76.05
2023-01-30T22:01:07.990Z,76.07
2023-01-30T22:03:40.136Z,76.06
2023-01-30T22:06:13.193Z,76.12
2023-01-30T22:08:45.245Z,76.13
2023-01-30T22:11:21.671Z,76.13
2023-01-30T22:13:54.953Z,76.16
2023-01-30T22:16:29.713Z,76.13
2023-01-30T22:19:04.482Z,76.13
2023-01-30T22:21:40.084Z,76.03
2023-01-30T22:24:12.377Z,76.10
2023-01-30T22:26:44.706Z,76.07
2023-01-30T22:29:18.225Z,76.17
2023-01-30T22:31:50.234Z,76.18
2023-01-30T22:34:22.737Z,76.13
2023-01-30T22:36:54.933Z,76.26
2023-01-30T22:39:27.050Z,76.31
2023-01-30T22:41:59.274Z,76.31
2023-01-30T22:44:31.708Z,76.41
2023-01-30T22:47:03.819Z,76.38
2023-01-30T22:49:35.870Z,76.39
2023-01-30T22:52:08.170Z,76.56
2023-01-30T22:54:40.641Z,76.54
2023-01-30T22:57:12.599Z,76.58
2023-01-30T22:59:44.544Z,76.51
2023-01-30T23:02:16.585Z,76.54
2023-01-30T23:04:50.561Z,76.51
2023-01-30T23:07:23.065Z,76.59
2023-01-30T23:09:55.074Z,76.59
2023-01-30T23:12:44.761Z,76.68
2023-01-30T23:15:17.118Z,76.71
2023-01-30T23:18:07.138Z,76.55
2023-01-30T23:20:39.156Z,76.57
2023-01-30T23:23:11.183Z,76.63
2023-01-30T23:25:43.559Z,76.61
2023-01-30T23:28:15.545Z,76.61
2023-01-30T23:30:47.654Z,76.54
2023-01-30T23:33:19.755Z,76.50
2023-01-30T23:35:51.609Z,76.57
2023-01-30T23:38:24.300Z,76.62
2023-01-30T23:40:57.810Z,76.53
2023-01-30T23:43:31.112Z,76.56
2023-01-30T23:46:26.853Z,76.60
2023-01-30T23:49:00.871Z,76.70
2023-01-30T23:51:33.517Z,76.71
2023-01-30T23:54:06.006Z,76.94
2023-01-30T23:56:40.388Z,76.37
2023-01-30T23:59:12.895Z,76.41
